Time;durP1;ratioP1;P1;durP2;ratioP2;P2;SDS_P1;SDS_P2;PMS_P1;PMS_P2;Temp;Humidity;BMP_temperature;BMP_pressure;BME280_temperature;BME280_humidity;BME280_pressure;Samples;Min_cycle;Max_cycle;Signal;HPM_P1;HPM_P2
2022/01/15 00:02:06;;;;;;;;;;;;;;;4.53;66.86;100756.63;4444810;32;35923;-78
2022/01/15 00:04:35;;;;;;;;;;;;;;;4.95;65.57;100762.19;4451462;32;32872;-78
2022/01/15 00:07:19;;;;;;;;;;;;;;;4.89;65.79;100765.16;4438176;32;34460;-79
2022/01/15 00:09:52;;;;;;;;;;;;;;;4.76;66.36;100764.12;4447790;32;35361;-78
2022/01/15 00:12:19;;;;;;;;;;;;;;;4.90;65.87;100764.22;4457122;32;34633;-79
2022/01/15 00:14:47;;;;;;;;;;;;;;;4.77;66.39;100764.97;4430330;32;33972;-78
2022/01/15 00:17:46;;;;;;;;;;;;;;;4.65;66.62;100773.56;4448554;32;33469;-79
2022/01/15 00:20:19;;;;;;;;;;;;;;;4.71;66.51;100775.87;4449549;32;34536;-78
2022/01/15 00:22:47;;;;;;;;;;;;;;;4.45;67.29;100771.16;4455925;32;34194;-78
2022/01/15 00:25:18;;;;;;;;;;;;;;;4.69;66.61;100775.06;4436379;32;31886;-78
2022/01/15 00:27:46;;;;;;;;;;;;;;;4.48;67.35;100787.66;4447648;32;34369;-79
2022/01/15 00:30:15;;;;;;;;;;;;;;;4.51;67.20;100789.28;4433771;32;35006;-78
2022/01/15 00:32:45;;;;;;;;;;;;;;;4.48;67.61;100794.69;4450604;32;33773;-79
2022/01/15 00:35:23;;;;;;;;;;;;;;;4.49;67.52;100783.22;4444936;32;33440;-79
2022/01/15 00:37:55;;;;;;;;;;;;;;;4.17;68.52;100794.62;4431488;32;33816;-78
2022/01/15 00:40:29;;;;;;;;;;;;;;;4.22;68.58;100787.31;4435036;32;35621;-78
2022/01/15 00:43:03;;;;;;;;;;;;;;;4.48;67.61;100799.97;4444294;32;34354;-79
2022/01/15 00:45:50;;;;;;;;;;;;;;;4.44;67.83;100793.16;4435716;32;32171;-78
2022/01/15 00:48:18;;;;;;;;;;;;;;;4.44;67.83;100796.63;4437807;32;34546;-78
2022/01/15 00:50:45;;;;;;;;;;;;;;;4.05;68.94;100795.28;4445196;32;35984;-78
2022/01/15 00:53:13;;;;;;;;;;;;;;;4.43;67.73;100799.37;4443760;32;33684;-78
2022/01/15 00:55:41;;;;;;;;;;;;;;;4.40;68.00;100803.03;4440161;32;33406;-79
2022/01/15 00:58:10;;;;;;;;;;;;;;;4.59;67.36;100798.47;4435779;32;33516;-78
2022/01/15 01:00:58;;;;;;;;;;;;;;;4.54;67.34;100805.75;4435518;32;35449;-79
2022/01/15 01:03:26;;;;;;;;;;;;;;;4.16;68.61;100811.38;4454115;32;35475;-79
2022/01/15 01:05:54;;;;;;;;;;;;;;;4.40;67.99;100817.97;4459371;32;33957;-78
2022/01/15 01:08:23;;;;;;;;;;;;;;;4.42;67.94;100818.75;4431172;32;34710;-78
2022/01/15 01:11:10;;;;;;;;;;;;;;;4.55;67.33;100823.25;4432445;32;34515;-78
2022/01/15 01:24:51;;;;;;;;;;;;;;;4.38;68.10;100847.03;4448684;32;35060;-78
2022/01/15 01:27:39;;;;;;;;;;;;;;;4.43;67.52;100854.69;4441536;32;32990;-79
2022/01/15 01:30:16;;;;;;;;;;;;;;;4.44;68.11;100845.88;4449452;32;35349;-79
2022/01/15 01:35:41;;;;;;;;;;;;;;;4.54;67.34;100850.53;4448967;32;35280;-79
2022/01/15 01:41:13;;;;;;;;;;;;;;;4.53;67.38;100850.66;4443834;32;34127;-78
2022/01/15 01:43:46;;;;;;;;;;;;;;;4.84;66.39;100846.28;4440349;32;35170;-78
2022/01/15 01:46:31;;;;;;;;;;;;;;;4.71;66.72;100841.75;4442314;32;34267;-78
2022/01/15 01:48:59;;;;;;;;;;;;;;;4.56;67.27;100827.63;4428231;32;31729;-79
2022/01/15 01:51:48;;;;;;;;;;;;;;;4.70;66.71;100834.78;4438871;32;33278;-78
2022/01/15 01:54:19;;;;;;;;;;;;;;;4.69;66.82;100825.16;4423879;32;34875;-79
2022/01/15 01:56:56;;;;;;;;;;;;;;;4.50;67.44;100814.75;4435430;32;34703;-78
2022/01/15 01:59:24;;;;;;;;;;;;;;;4.41;67.63;100809.13;4439306;32;32828;-78
2022/01/15 02:01:52;;;;;;;;;;;;;;;4.56;66.96;100801.28;4455001;32;33981;-78
2022/01/15 02:04:22;;;;;;;;;;;;;;;4.62;66.63;100810.63;4435248;32;35456;-78
2022/01/15 02:06:54;;;;;;;;;;;;;;;4.88;65.45;100815.31;4420873;32;34234;-78
2022/01/15 02:09:24;;;;;;;;;;;;;;;5.00;65.04;100807.59;4445090;32;32805;-79
2022/01/15 02:11:53;;;;;;;;;;;;;;;4.94;65.11;100813.22;4433388;32;34140;-78
2022/01/15 02:14:25;;;;;;;;;;;;;;;4.74;65.86;100815.22;4440221;32;34077;-78
2022/01/15 02:16:53;;;;;;;;;;;;;;;4.53;66.51;100825.12;4460458;32;35271;-78
2022/01/15 02:19:33;;;;;;;;;;;;;;;4.91;65.21;100820.44;4434247;32;32523;-78
2022/01/15 02:24:50;;;;;;;;;;;;;;;4.57;65.87;100823.19;4449706;32;34688;-78
2022/01/15 02:27:18;;;;;;;;;;;;;;;4.76;65.68;100827.41;4446176;32;35578;-78
2022/01/15 02:29:47;;;;;;;;;;;;;;;4.89;64.70;100831.06;4437810;32;33098;-79
2022/01/15 02:32:14;;;;;;;;;;;;;;;5.06;64.11;100830.13;4429932;32;35088;-78
2022/01/15 02:34:51;;;;;;;;;;;;;;;4.82;65.09;100827.06;4439899;32;36671;-78
2022/01/15 02:37:38;;;;;;;;;;;;;;;4.35;66.51;100839.28;4421682;32;33701;-78
2022/01/15 02:40:08;;;;;;;;;;;;;;;4.68;65.30;100837.50;4441015;32;33722;-78
2022/01/15 02:42:56;;;;;;;;;;;;;;;4.56;65.43;100834.66;4420486;32;35271;-78
2022/01/15 02:45:26;;;;;;;;;;;;;;;4.60;65.42;100838.81;4442323;32;35991;-78
2022/01/15 02:48:00;;;;;;;;;;;;;;;4.82;64.69;100829.69;4444591;32;33539;-79
2022/01/15 02:50:32;;;;;;;;;;;;;;;4.57;65.22;100826.69;4438484;32;32586;-78
2022/01/15 02:53:04;;;;;;;;;;;;;;;4.64;65.16;100822.78;4452423;32;34004;-78
2022/01/15 02:55:35;;;;;;;;;;;;;;;4.81;64.44;100830.63;4442304;32;34632;-78
2022/01/15 02:58:03;;;;;;;;;;;;;;;4.61;65.06;100827.37;4453476;32;34143;-78
2022/01/15 03:00:32;;;;;;;;;;;;;;;4.27;65.96;100827.44;4434864;32;33091;-78
2022/01/15 03:03:01;;;;;;;;;;;;;;;4.47;65.33;100825.47;4441535;32;33727;-79
2022/01/15 03:05:42;;;;;;;;;;;;;;;4.52;65.31;100820.81;4450327;32;36007;-78
2022/01/15 03:08:11;;;;;;;;;;;;;;;4.21;66.53;100817.22;4418674;32;33343;-78
2022/01/15 03:10:39;;;;;;;;;;;;;;;3.90;67.02;100820.59;4451364;32;32690;-78
2022/01/15 03:13:13;;;;;;;;;;;;;;;3.87;67.53;100812.00;4442746;32;33808;-79
2022/01/15 03:15:44;;;;;;;;;;;;;;;3.63;68.48;100810.59;4433184;32;34262;-79
2022/01/15 03:18:13;;;;;;;;;;;;;;;3.30;69.41;100794.69;4443626;32;34976;-79
2022/01/15 03:20:41;;;;;;;;;;;;;;;3.53;68.82;100794.44;4445214;32;32613;-79
2022/01/15 03:23:09;;;;;;;;;;;;;;;3.67;68.34;100797.22;4425567;32;34356;-79
2022/01/15 03:25:42;;;;;;;;;;;;;;;3.50;68.66;100791.94;4441488;32;34788;-78
2022/01/15 03:28:12;;;;;;;;;;;;;;;3.35;69.23;100797.09;4434225;32;34223;-79
2022/01/15 03:30:40;;;;;;;;;;;;;;;3.63;68.50;100794.81;4445895;32;33576;-79
2022/01/15 03:33:24;;;;;;;;;;;;;;;3.86;67.39;100797.16;4434461;32;34282;-79
2022/01/15 03:35:55;;;;;;;;;;;;;;;4.10;66.52;100802.00;4433963;32;34200;-79
2022/01/15 03:38:23;;;;;;;;;;;;;;;4.26;65.49;100808.16;4429133;32;35391;-79
2022/01/15 03:41:11;;;;;;;;;;;;;;;4.47;64.85;100807.03;4435064;32;33094;-79
2022/01/15 03:43:40;;;;;;;;;;;;;;;4.34;65.31;100808.59;4433891;32;34221;-79
2022/01/15 03:46:10;;;;;;;;;;;;;;;4.37;65.40;100808.47;4437812;32;35103;-79
2022/01/15 03:48:38;;;;;;;;;;;;;;;4.48;64.76;100808.72;4430287;32;34255;-78
2022/01/15 03:51:22;;;;;;;;;;;;;;;4.55;64.50;100812.72;4443770;32;32625;-79
2022/01/15 03:53:51;;;;;;;;;;;;;;;4.61;64.36;100816.84;4461286;32;34382;-79
2022/01/15 03:56:19;;;;;;;;;;;;;;;4.63;64.12;100820.25;4452609;32;34772;-79
2022/01/15 03:58:49;;;;;;;;;;;;;;;4.53;64.26;100827.75;4445715;32;36004;-79
2022/01/15 04:01:21;;;;;;;;;;;;;;;4.40;64.74;100828.50;4430054;32;32101;-79
2022/01/15 04:03:50;;;;;;;;;;;;;;;4.68;63.92;100834.88;4445422;32;34140;-79
2022/01/15 04:06:37;;;;;;;;;;;;;;;4.33;65.20;100835.03;4446778;32;36703;-79
2022/01/15 04:09:09;;;;;;;;;;;;;;;4.71;63.90;100842.59;4443854;32;33208;-79
2022/01/15 04:11:37;;;;;;;;;;;;;;;4.83;63.34;100851.63;4438654;32;32873;-79
2022/01/15 04:14:22;;;;;;;;;;;;;;;4.85;63.20;100860.31;4447264;32;34198;-79
2022/01/15 04:16:51;;;;;;;;;;;;;;;4.75;63.53;100856.47;4432587;32;35008;-78
2022/01/15 04:19:20;;;;;;;;;;;;;;;4.74;63.55;100863.53;4420856;32;33330;-79
2022/01/15 04:21:50;;;;;;;;;;;;;;;4.46;64.25;100865.06;4431124;32;31846;-79
2022/01/15 04:24:39;;;;;;;;;;;;;;;4.40;64.47;100860.09;4441365;32;32437;-79
2022/01/15 04:27:08;;;;;;;;;;;;;;;4.65;63.45;100850.00;4438307;32;35822;-79
2022/01/15 04:29:42;;;;;;;;;;;;;;;4.51;64.37;100868.31;4426026;32;33184;-79
2022/01/15 04:32:11;;;;;;;;;;;;;;;4.55;64.22;100867.22;4420431;32;32841;-79
2022/01/15 04:34:40;;;;;;;;;;;;;;;4.71;63.35;100868.13;4422591;32;793797;-78
2022/01/15 04:37:17;;;;;;;;;;;;;;;4.91;62.20;100867.91;4431807;32;33798;-79
2022/01/15 04:39:49;;;;;;;;;;;;;;;4.75;62.61;100869.66;4437636;32;35352;-79
2022/01/15 04:42:37;;;;;;;;;;;;;;;4.59;63.20;100877.53;4452585;32;33497;-79
2022/01/15 04:48:25;;;;;;;;;;;;;;;4.18;64.86;100870.94;4441054;32;35151;-77
2022/01/15 04:50:54;;;;;;;;;;;;;;;4.34;64.39;100879.72;4423536;32;36182;-77
2022/01/15 04:53:22;;;;;;;;;;;;;;;4.09;65.91;100884.56;4419246;32;33109;-77
2022/01/15 04:55:50;;;;;;;;;;;;;;;4.24;65.83;100885.56;4451818;32;33511;-77
2022/01/15 04:58:18;;;;;;;;;;;;;;;3.83;66.76;100889.41;4441919;32;35289;-78
2022/01/15 05:00:45;;;;;;;;;;;;;;;4.24;65.80;100880.28;4436669;32;35152;-77
2022/01/15 05:03:27;;;;;;;;;;;;;;;3.76;67.46;100880.09;4432324;32;33018;-77
2022/01/15 05:05:54;;;;;;;;;;;;;;;4.20;65.82;100878.72;4430670;32;34300;-77
2022/01/15 05:08:22;;;;;;;;;;;;;;;4.31;65.60;100876.38;4423279;32;34932;-77
2022/01/15 05:10:50;;;;;;;;;;;;;;;4.34;65.09;100876.25;4431067;32;33294;-77
2022/01/15 05:13:26;;;;;;;;;;;;;;;4.31;65.63;100879.88;4437697;32;32425;-77
2022/01/15 05:15:55;;;;;;;;;;;;;;;4.38;65.11;100881.28;4432686;32;33716;-77
2022/01/15 05:18:23;;;;;;;;;;;;;;;4.14;66.30;100882.53;4419793;32;35195;-77
2022/01/15 05:20:59;;;;;;;;;;;;;;;4.19;66.47;100883.16;4434611;32;33440;-77
2022/01/15 05:23:27;;;;;;;;;;;;;;;4.11;66.42;100885.31;4441848;32;33772;-77
2022/01/15 05:25:59;;;;;;;;;;;;;;;4.40;65.44;100875.91;4437225;32;35615;-77
2022/01/15 05:28:31;;;;;;;;;;;;;;;4.13;66.33;100877.31;4429990;32;33834;-77
2022/01/15 05:31:02;;;;;;;;;;;;;;;4.13;66.23;100869.44;4457959;32;34692;-77
2022/01/15 05:33:30;;;;;;;;;;;;;;;4.39;65.24;100869.81;4432461;32;32884;-76
2022/01/15 05:35:58;;;;;;;;;;;;;;;4.31;65.57;100873.75;4431891;32;33777;-77
2022/01/15 05:38:33;;;;;;;;;;;;;;;3.82;67.23;100874.53;4441676;32;35479;-77
2022/01/15 05:41:18;;;;;;;;;;;;;;;4.05;66.38;100867.19;4436388;32;32924;-77
2022/01/15 05:43:48;;;;;;;;;;;;;;;4.01;66.24;100878.81;4409573;32;32388;-77
2022/01/15 05:46:18;;;;;;;;;;;;;;;4.23;65.62;100879.44;4448243;32;33637;-77
2022/01/15 05:49:00;;;;;;;;;;;;;;;3.86;66.89;100882.22;4442925;32;36082;-77
2022/01/15 05:51:31;;;;;;;;;;;;;;;3.99;66.46;100888.56;4418785;32;32862;-78
2022/01/15 05:53:59;;;;;;;;;;;;;;;3.87;66.96;100894.44;4459898;32;33021;-77
2022/01/15 05:56:42;;;;;;;;;;;;;;;3.85;66.96;100896.31;4420306;32;32796;-77
2022/01/15 05:59:13;;;;;;;;;;;;;;;3.82;67.06;100899.09;4446114;32;34342;-77
2022/01/15 06:01:41;;;;;;;;;;;;;;;4.08;66.02;100901.25;4432436;32;33632;-77
2022/01/15 06:04:14;;;;;;;;;;;;;;;3.96;66.40;100912.41;4429755;32;34444;-77
2022/01/15 06:06:41;;;;;;;;;;;;;;;3.99;66.31;100906.16;4420117;32;36031;-77
2022/01/15 06:09:12;;;;;;;;;;;;;;;4.08;65.67;100910.97;4442307;32;35766;-77
2022/01/15 06:11:43;;;;;;;;;;;;;;;3.84;66.36;100918.28;4442173;32;34391;-77
2022/01/15 06:14:13;;;;;;;;;;;;;;;4.05;65.97;100916.38;4456299;32;33463;-78
2022/01/15 06:16:42;;;;;;;;;;;;;;;4.21;65.33;100925.19;4445142;32;34410;-77
2022/01/15 06:19:10;;;;;;;;;;;;;;;4.20;65.45;100931.41;4458219;32;37330;-77
2022/01/15 06:21:37;;;;;;;;;;;;;;;4.10;65.11;100933.66;4432703;32;34545;-77
2022/01/15 06:24:25;;;;;;;;;;;;;;;4.29;64.87;100934.44;4441400;32;33754;-77
2022/01/15 06:26:53;;;;;;;;;;;;;;;3.93;65.81;100935.41;4433466;32;34785;-77
2022/01/15 06:29:24;;;;;;;;;;;;;;;4.16;65.28;100933.31;4429318;32;35421;-77
2022/01/15 06:31:54;;;;;;;;;;;;;;;4.40;64.08;100934.75;4445434;32;33777;-77
2022/01/15 06:34:41;;;;;;;;;;;;;;;4.52;63.80;100930.62;4430921;32;32334;-77
2022/01/15 06:37:13;;;;;;;;;;;;;;;4.69;63.08;100930.59;4446135;32;33508;-77
2022/01/15 06:39:42;;;;;;;;;;;;;;;4.24;64.52;100933.81;4439928;32;34827;-77
2022/01/15 06:42:09;;;;;;;;;;;;;;;4.31;64.42;100932.56;4425723;32;33614;-77
2022/01/15 06:44:43;;;;;;;;;;;;;;;4.17;64.93;100940.31;4441089;32;33572;-77
2022/01/15 06:47:12;;;;;;;;;;;;;;;4.39;64.35;100934.81;4445940;32;33048;-77
2022/01/15 06:49:41;;;;;;;;;;;;;;;4.22;64.62;100940.06;4442965;32;35281;-77
2022/01/15 06:52:10;;;;;;;;;;;;;;;4.46;64.11;100944.09;4447879;32;35012;-78
2022/01/15 06:54:37;;;;;;;;;;;;;;;4.58;63.67;100949.59;4438898;32;32265;-77
2022/01/15 06:57:06;;;;;;;;;;;;;;;3.84;65.96;100952.50;4442835;32;33809;-77
2022/01/15 06:59:34;;;;;;;;;;;;;;;4.14;65.03;100943.09;4450473;32;35846;-76
2022/01/15 07:02:05;;;;;;;;;;;;;;;4.00;65.32;100950.84;4438051;32;34690;-78
2022/01/15 07:04:35;;;;;;;;;;;;;;;4.11;64.90;100948.53;4443656;32;33320;-77
2022/01/15 07:07:07;;;;;;;;;;;;;;;4.14;64.85;100951.00;4444697;32;34012;-77
2022/01/15 07:09:35;;;;;;;;;;;;;;;4.25;64.74;100958.38;4417696;32;35245;-77
2022/01/15 07:12:06;;;;;;;;;;;;;;;4.33;64.13;100957.03;4448261;32;32724;-77
2022/01/15 07:14:42;;;;;;;;;;;;;;;4.42;63.88;100967.12;4440050;32;33675;-77
2022/01/15 07:17:14;;;;;;;;;;;;;;;4.45;63.85;100966.97;4449367;32;33832;-77
2022/01/15 07:19:42;;;;;;;;;;;;;;;4.54;63.38;100963.84;4438270;32;34360;-77
2022/01/15 07:22:14;;;;;;;;;;;;;;;4.40;63.79;100968.13;4434642;32;33093;-77
2022/01/15 07:24:44;;;;;;;;;;;;;;;4.24;64.14;100973.31;4434383;32;31760;-77
2022/01/15 07:27:12;;;;;;;;;;;;;;;4.25;64.33;100971.53;4454436;32;36031;-77
2022/01/15 07:29:43;;;;;;;;;;;;;;;4.40;63.87;100981.28;4443270;32;34804;-77
2022/01/15 07:32:11;;;;;;;;;;;;;;;4.42;63.89;100971.56;4432365;32;33491;-77
2022/01/15 07:34:40;;;;;;;;;;;;;;;4.54;63.28;100976.19;4431783;32;34019;-77
2022/01/15 07:37:10;;;;;;;;;;;;;;;4.34;64.11;100978.97;4459261;32;33274;-77
2022/01/15 07:39:39;;;;;;;;;;;;;;;4.57;63.49;100984.81;4439016;32;36079;-77
2022/01/15 07:42:16;;;;;;;;;;;;;;;4.42;63.79;100987.38;4442816;32;33898;-77
2022/01/15 07:44:43;;;;;;;;;;;;;;;4.44;63.73;100988.12;4447727;32;33155;-77
2022/01/15 07:47:12;;;;;;;;;;;;;;;4.47;63.66;100982.69;4440997;32;33803;-78
2022/01/15 07:49:45;;;;;;;;;;;;;;;4.72;63.01;100991.06;4432978;32;34978;-78
2022/01/15 07:52:15;;;;;;;;;;;;;;;4.64;63.27;100993.25;4428401;32;34767;-78
2022/01/15 07:54:44;;;;;;;;;;;;;;;4.32;64.05;100996.63;4425752;32;31629;-78
2022/01/15 07:57:18;;;;;;;;;;;;;;;4.69;62.97;101002.63;4429805;32;32393;-78
2022/01/15 07:59:46;;;;;;;;;;;;;;;5.03;62.27;100999.06;4432251;32;35972;-78
2022/01/15 08:02:15;;;;;;;;;;;;;;;5.19;61.53;101008.72;4428536;32;32987;-78
2022/01/15 08:04:47;;;;;;;;;;;;;;;5.49;60.49;101005.31;4427215;32;33229;-78
2022/01/15 08:07:18;;;;;;;;;;;;;;;5.36;60.65;101010.50;4426836;32;35166;-78
2022/01/15 08:09:48;;;;;;;;;;;;;;;5.24;60.81;101006.72;4439833;32;34857;-78
2022/01/15 08:12:19;;;;;;;;;;;;;;;5.21;60.39;101004.25;4439132;32;34288;-78
2022/01/15 08:14:51;;;;;;;;;;;;;;;5.19;60.82;101019.28;4446941;32;33211;-78
2022/01/15 08:17:19;;;;;;;;;;;;;;;4.96;61.66;101014.38;4438173;32;34592;-78
2022/01/15 08:19:51;;;;;;;;;;;;;;;5.19;61.11;101018.44;4439358;32;34308;-78
2022/01/15 08:22:19;;;;;;;;;;;;;;;5.42;59.89;101010.16;4449425;32;34859;-78
2022/01/15 08:24:47;;;;;;;;;;;;;;;5.66;59.49;101018.44;4434495;32;31974;-78
2022/01/15 08:27:16;;;;;;;;;;;;;;;5.68;59.49;101018.38;4440499;32;32584;-78
2022/01/15 08:29:45;;;;;;;;;;;;;;;5.84;58.68;101027.16;4440170;32;35993;-78
2022/01/15 08:32:14;;;;;;;;;;;;;;;5.54;58.67;101031.44;4449570;32;34777;-78
2022/01/15 08:34:48;;;;;;;;;;;;;;;5.62;58.64;101010.78;4430307;32;32848;-78
2022/01/15 08:37:16;;;;;;;;;;;;;;;5.98;58.00;101021.97;4435071;32;34132;-78
2022/01/15 08:40:05;;;;;;;;;;;;;;;6.01;57.73;101017.38;4441159;32;35019;-78
2022/01/15 08:42:53;;;;;;;;;;;;;;;6.10;57.43;101021.28;4414831;32;34240;-78
2022/01/15 08:45:26;;;;;;;;;;;;;;;6.11;57.53;101022.97;4435956;32;32952;-78
2022/01/15 08:47:56;;;;;;;;;;;;;;;6.49;56.41;101014.56;4437980;32;32449;-78
2022/01/15 08:50:26;;;;;;;;;;;;;;;6.54;56.21;101011.66;4435363;32;34392;-78
2022/01/15 08:52:54;;;;;;;;;;;;;;;6.53;55.63;101005.50;4419889;32;35990;-79
2022/01/15 08:55:28;;;;;;;;;;;;;;;6.50;55.98;101023.34;4426227;32;32618;-78
2022/01/15 08:57:59;;;;;;;;;;;;;;;5.84;57.34;101012.19;4439145;32;32860;-79
2022/01/15 09:00:28;;;;;;;;;;;;;;;6.33;56.09;101016.37;4427340;32;33766;-79
2022/01/15 09:02:56;;;;;;;;;;;;;;;6.13;56.33;101006.09;4435291;32;34144;-79
2022/01/15 09:05:24;;;;;;;;;;;;;;;6.31;56.06;101010.34;4448215;32;34271;-78
2022/01/15 09:07:56;;;;;;;;;;;;;;;6.57;55.65;101012.34;4429880;32;35851;-79
2022/01/15 09:10:26;;;;;;;;;;;;;;;6.88;54.57;101008.72;4455582;32;35282;-79
2022/01/15 09:13:13;;;;;;;;;;;;;;;6.70;54.67;101012.47;4438042;32;34478;-78
2022/01/15 09:15:52;;;;;;;;;;;;;;;6.76;53.51;101010.31;4439777;32;33556;-79
2022/01/15 09:18:20;;;;;;;;;;;;;;;6.57;54.53;101014.13;4453541;32;34157;-78
2022/01/15 09:20:50;;;;;;;;;;;;;;;6.41;53.99;101011.50;4446568;32;35947;-79
2022/01/15 09:23:18;;;;;;;;;;;;;;;6.56;54.02;101005.34;4438041;32;33321;-77
2022/01/15 09:25:46;;;;;;;;;;;;;;;6.74;53.24;100998.97;4434454;32;32390;-77
2022/01/15 09:31:21;;;;;;;;;;;;;;;7.13;51.98;100995.69;4443393;32;33799;-78
2022/01/15 09:34:11;;;;;;;;;;;;;;;6.83;52.43;100995.78;4426290;32;34494;-79
2022/01/15 09:36:41;;;;;;;;;;;;;;;6.92;51.86;100995.19;4433536;32;34456;-78
2022/01/15 09:39:25;;;;;;;;;;;;;;;6.73;52.19;100996.41;4409786;32;34162;-78
2022/01/15 09:42:13;;;;;;;;;;;;;;;7.26;51.31;100986.91;4414504;32;34823;-78
2022/01/15 09:44:46;;;;;;;;;;;;;;;6.87;52.12;100986.72;4445649;32;34469;-79
2022/01/15 09:47:16;;;;;;;;;;;;;;;7.36;51.30;100981.91;4452241;32;32546;-78
2022/01/15 09:49:50;;;;;;;;;;;;;;;7.55;50.86;100996.53;4430871;32;33061;-79
2022/01/15 09:52:18;;;;;;;;;;;;;;;7.36;49.24;100980.09;4427438;32;34354;-78
2022/01/15 09:54:47;;;;;;;;;;;;;;;7.05;49.91;100993.53;4451835;32;34379;-78
2022/01/15 09:57:17;;;;;;;;;;;;;;;7.09;49.73;100975.69;4429345;32;32045;-78
2022/01/15 09:59:45;;;;;;;;;;;;;;;6.78;50.43;100978.47;4432089;32;34217;-79
2022/01/15 10:02:20;;;;;;;;;;;;;;;6.83;49.73;100966.69;4422563;32;34107;-78
2022/01/15 10:04:59;;;;;;;;;;;;;;;7.22;48.82;100974.84;4440336;32;34271;-78
2022/01/15 10:07:27;;;;;;;;;;;;;;;7.13;49.95;100980.69;4450216;32;34646;-79
2022/01/15 10:10:14;;;;;;;;;;;;;;;7.18;48.63;100978.59;4438173;32;34141;-78
2022/01/15 10:12:44;;;;;;;;;;;;;;;7.44;48.25;100963.75;4437496;32;34608;-78
2022/01/15 10:15:13;;;;;;;;;;;;;;;7.20;48.54;100973.22;4441625;32;35010;-79
2022/01/15 10:17:42;;;;;;;;;;;;;;;7.34;48.39;100981.12;4439206;32;33358;-78
2022/01/15 10:20:34;;;;;;;;;;;;;;;7.57;47.43;100957.56;4438584;32;33380;-79
2022/01/15 10:23:01;;;;;;;;;;;;;;;7.15;47.72;100967.34;4449017;32;34886;-78
2022/01/15 10:25:33;;;;;;;;;;;;;;;7.07;48.53;100964.34;4433227;32;33590;-78
2022/01/15 10:28:04;;;;;;;;;;;;;;;7.43;48.01;100977.91;4431701;32;32978;-78
2022/01/15 10:30:33;;;;;;;;;;;;;;;7.70;46.11;100970.88;4428144;32;34334;-78
2022/01/15 10:33:22;;;;;;;;;;;;;;;7.58;46.91;100967.25;4424966;32;35075;-78
2022/01/15 10:35:49;;;;;;;;;;;;;;;7.72;45.77;100955.78;4438713;32;34222;-78
2022/01/15 10:38:17;;;;;;;;;;;;;;;7.96;45.89;100957.69;4426333;32;33542;-79
2022/01/15 10:40:47;;;;;;;;;;;;;;;8.06;45.66;100960.56;4433074;32;33200;-78
2022/01/15 10:43:16;;;;;;;;;;;;;;;8.37;45.19;100962.94;4444097;32;34792;-78
2022/01/15 10:45:51;;;;;;;;;;;;;;;8.44;45.41;100960.59;4428641;32;33438;-78
2022/01/15 10:48:22;;;;;;;;;;;;;;;8.21;44.89;100952.47;4455607;32;32826;-78
2022/01/15 10:50:57;;;;;;;;;;;;;;;8.29;44.84;100952.00;4426953;32;35061;-78
2022/01/15 10:53:38;;;;;;;;;;;;;;;8.63;44.34;100952.28;4431657;32;34044;-78
2022/01/15 10:56:11;;;;;;;;;;;;;;;8.62;43.67;100948.75;4442600;32;35437;-79
2022/01/15 10:58:42;;;;;;;;;;;;;;;8.49;43.94;100933.78;4429071;32;31936;-78
2022/01/15 11:01:14;;;;;;;;;;;;;;;8.50;44.12;100933.69;4438725;32;33640;-78
2022/01/15 11:03:45;;;;;;;;;;;;;;;8.77;44.32;100936.25;4458218;32;35320;-78
2022/01/15 11:06:20;;;;;;;;;;;;;;;9.00;43.63;100946.13;4433122;32;34064;-78
2022/01/15 11:08:48;;;;;;;;;;;;;;;8.94;41.89;100931.50;4452999;32;33939;-79
2022/01/15 11:11:19;;;;;;;;;;;;;;;8.40;42.75;100915.00;4447111;32;33593;-78
2022/01/15 11:13:47;;;;;;;;;;;;;;;8.59;42.94;100918.94;4437816;32;34526;-79
2022/01/15 11:16:18;;;;;;;;;;;;;;;8.69;42.28;100912.06;4429937;32;34661;-79
2022/01/15 11:18:49;;;;;;;;;;;;;;;8.43;42.08;100917.44;4453656;32;32805;-78
2022/01/15 11:21:19;;;;;;;;;;;;;;;8.49;42.76;100924.03;4410035;32;32978;-79
2022/01/15 11:23:48;;;;;;;;;;;;;;;8.46;42.73;100910.12;4439709;32;35106;-78
2022/01/15 11:26:20;;;;;;;;;;;;;;;8.76;42.19;100916.84;4420825;32;34501;-78
2022/01/15 11:28:50;;;;;;;;;;;;;;;8.78;42.66;100919.38;4456925;32;33681;-79
2022/01/15 11:31:21;;;;;;;;;;;;;;;8.53;42.60;100912.25;4439140;32;34674;-78
2022/01/15 11:34:01;;;;;;;;;;;;;;;8.62;43.39;100918.75;4437759;32;33869;-78
2022/01/15 11:36:38;;;;;;;;;;;;;;;8.48;43.66;100911.72;4428548;32;33970;-78
2022/01/15 11:39:07;;;;;;;;;;;;;;;8.54;43.67;100915.75;4442333;32;33451;-78
2022/01/15 11:41:37;;;;;;;;;;;;;;;8.44;43.90;100922.66;4456880;32;33685;-78
2022/01/15 11:44:15;;;;;;;;;;;;;;;8.76;43.55;100926.59;4452403;32;35893;-79
2022/01/15 11:46:44;;;;;;;;;;;;;;;8.72;43.95;100923.28;4440321;32;35949;-78
2022/01/15 11:49:29;;;;;;;;;;;;;;;8.53;44.28;100920.19;4446382;32;33214;-76
2022/01/15 11:52:06;;;;;;;;;;;;;;;8.65;43.85;100927.34;4458293;32;33523;-78
2022/01/15 11:54:34;;;;;;;;;;;;;;;8.94;43.88;100934.16;4440817;32;35213;-77
2022/01/15 11:57:04;;;;;;;;;;;;;;;8.88;43.69;100929.25;4435218;32;34834;-78
2022/01/15 11:59:31;;;;;;;;;;;;;;;9.30;42.98;100914.78;4425466;32;34223;-78
2022/01/15 12:02:04;;;;;;;;;;;;;;;9.10;43.63;100907.38;4418690;32;32871;-78
2022/01/15 12:04:37;;;;;;;;;;;;;;;8.92;44.14;100911.31;4437691;32;35085;-76
2022/01/15 12:07:04;;;;;;;;;;;;;;;9.19;44.27;100918.19;4429142;32;34726;-76
2022/01/15 12:09:40;;;;;;;;;;;;;;;9.58;43.20;100904.72;4454851;32;32767;-77
2022/01/15 12:12:26;;;;;;;;;;;;;;;9.34;44.13;100906.47;4454456;32;34798;-76
2022/01/15 12:15:04;;;;;;;;;;;;;;;9.32;44.27;100908.41;4442659;32;35040;-76
2022/01/15 12:17:39;;;;;;;;;;;;;;;9.46;43.90;100894.97;4436198;32;34912;-75
2022/01/15 12:20:17;;;;;;;;;;;;;;;9.58;42.46;100903.88;4439082;32;34229;-76
2022/01/15 12:22:45;;;;;;;;;;;;;;;9.44;43.36;100919.97;4421266;32;32866;-76
2022/01/15 12:25:15;;;;;;;;;;;;;;;9.50;43.07;100911.53;4433534;32;35200;-77
2022/01/15 12:27:57;;;;;;;;;;;;;;;9.21;44.42;100902.16;4457002;32;34866;-76
2022/01/15 12:30:27;;;;;;;;;;;;;;;9.22;44.61;100901.19;4436906;32;33281;-76
2022/01/15 12:33:00;;;;;;;;;;;;;;;9.61;43.04;100907.16;4438277;32;33777;-76
2022/01/15 12:35:51;;;;;;;;;;;;;;;9.19;42.79;100904.06;4447285;32;36660;-76
2022/01/15 12:38:26;;;;;;;;;;;;;;;9.53;42.17;100892.75;4430561;32;34192;-76
2022/01/15 12:40:56;;;;;;;;;;;;;;;9.27;42.84;100891.09;4425459;32;34163;-76
2022/01/15 12:43:28;;;;;;;;;;;;;;;9.25;42.37;100885.88;4451396;32;32834;-76
2022/01/15 12:45:57;;;;;;;;;;;;;;;9.53;42.27;100879.47;4454041;32;36156;-77
2022/01/15 12:48:27;;;;;;;;;;;;;;;9.74;41.34;100872.56;4435889;32;34719;-76
2022/01/15 12:50:58;;;;;;;;;;;;;;;9.24;41.94;100864.75;4433426;32;32559;-76
2022/01/15 12:53:27;;;;;;;;;;;;;;;9.50;41.63;100853.09;4431781;32;33533;-76
2022/01/15 12:55:55;;;;;;;;;;;;;;;9.13;42.34;100862.03;4438107;32;35944;-76
2022/01/15 12:58:24;;;;;;;;;;;;;;;9.40;42.42;100868.00;4441626;32;34651;-76
2022/01/15 13:00:53;;;;;;;;;;;;;;;9.36;42.74;100856.75;4426228;32;33011;-77
2022/01/15 13:03:41;;;;;;;;;;;;;;;9.25;42.26;100877.94;4429131;32;34271;-76
2022/01/15 13:06:13;;;;;;;;;;;;;;;9.17;42.28;100859.03;4449830;32;34766;-76
2022/01/15 13:08:43;;;;;;;;;;;;;;;9.36;41.49;100855.91;4445225;32;33200;-76
2022/01/15 13:13:42;;;;;;;;;;;;;;;9.87;41.16;100849.41;4450461;32;34832;-76
2022/01/15 13:16:12;;;;;;;;;;;;;;;10.05;41.12;100848.94;4419802;32;35142;-76
2022/01/15 13:18:45;;;;;;;;;;;;;;;10.26;40.02;100843.78;4429626;32;34665;-76
2022/01/15 13:21:14;;;;;;;;;;;;;;;10.68;39.41;100856.47;4426351;32;32982;-76
2022/01/15 13:23:53;;;;;;;;;;;;;;;10.90;39.28;100848.47;4418134;32;34033;-77
2022/01/15 13:26:21;;;;;;;;;;;;;;;10.48;38.11;100854.50;4437899;32;35057;-77
2022/01/15 13:28:51;;;;;;;;;;;;;;;10.78;38.19;100844.13;4404689;26;36128;-85
2022/01/15 13:31:18;;;;;;;;;;;;;;;11.38;36.55;100853.41;4421239;32;31375;-86
2022/01/15 13:33:46;;;;;;;;;;;;;;;11.97;36.15;100841.38;4406880;32;34111;-84
2022/01/15 13:36:15;;;;;;;;;;;;;;;12.89;33.83;100844.94;4450955;32;36271;-87
2022/01/15 13:38:44;;;;;;;;;;;;;;;12.68;34.19;100846.81;4434714;32;34688;-87
2022/01/15 13:41:12;;;;;;;;;;;;;;;12.09;35.28;100857.22;4428070;32;32422;-85